sensor_id;sensor_type;location;lat;lon;timestamp;pressure;altitude;pressure_sealevel;temperature;humidity
24892;BME280;12954;50.688;10.908;2023-02-15T00:00:27;96879.63;;;2.26;58.28
24892;BME280;12954;50.688;10.908;2023-02-15T00:02:56;96871.88;;;2.24;58.29
24892;BME280;12954;50.688;10.908;2023-02-15T00:05:24;96869.97;;;2.18;58.15
24892;BME280;12954;50.688;10.908;2023-02-15T00:07:52;96868.72;;;2.14;58.35
24892;BME280;12954;50.688;10.908;2023-02-15T00:10:21;96867.91;;;2.13;58.24
24892;BME280;12954;50.688;10.908;2023-02-15T00:12:50;96862.38;;;2.15;58.15
24892;BME280;12954;50.688;10.908;2023-02-15T00:15:20;96866.88;;;2.14;58.18
24892;BME280;12954;50.688;10.908;2023-02-15T00:17:48;96848.41;;;2.06;57.80
24892;BME280;12954;50.688;10.908;2023-02-15T00:20:17;96864.00;;;2.09;58.03
24892;BME280;12954;50.688;10.908;2023-02-15T00:22:46;96820.97;;;1.78;57.88
24892;BME280;12954;50.688;10.908;2023-02-15T00:25:14;96837.72;;;2.00;57.65
24892;BME280;12954;50.688;10.908;2023-02-15T00:27:43;96837.25;;;1.90;57.99
24892;BME280;12954;50.688;10.908;2023-02-15T00:32:42;96851.69;;;2.08;57.63
24892;BME280;12954;50.688;10.908;2023-02-15T00:35:10;96854.75;;;2.05;57.41
24892;BME280;12954;50.688;10.908;2023-02-15T00:37:38;96776.66;;;1.64;57.32
24892;BME280;12954;50.688;10.908;2023-02-15T00:40:08;96843.47;;;2.03;57.23
24892;BME280;12954;50.688;10.908;2023-02-15T00:42:36;96841.81;;;2.02;57.09
24892;BME280;12954;50.688;10.908;2023-02-15T00:45:05;96834.59;;;1.90;57.08
24892;BME280;12954;50.688;10.908;2023-02-15T00:47:34;96846.13;;;2.03;56.78
24892;BME280;12954;50.688;10.908;2023-02-15T00:50:05;96833.44;;;2.05;56.57
24892;BME280;12954;50.688;10.908;2023-02-15T00:52:34;96825.41;;;1.92;56.32
24892;BME280;12954;50.688;10.908;2023-02-15T00:55:03;96843.47;;;2.03;56.13
24892;BME280;12954;50.688;10.908;2023-02-15T00:57:32;96831.44;;;2.07;55.46
24892;BME280;12954;50.688;10.908;2023-02-15T01:00:00;96825.56;;;2.18;55.11
24892;BME280;12954;50.688;10.908;2023-02-15T01:02:28;96828.84;;;2.20;54.92
24892;BME280;12954;50.688;10.908;2023-02-15T01:04:57;96829.66;;;2.21;54.86
24892;BME280;12954;50.688;10.908;2023-02-15T01:07:27;96820.66;;;2.22;54.53
24892;BME280;12954;50.688;10.908;2023-02-15T01:09:55;96770.44;;;1.85;54.65
24892;BME280;12954;50.688;10.908;2023-02-15T01:12:24;96803.38;;;2.11;54.62
24892;BME280;12954;50.688;10.908;2023-02-15T01:14:52;96795.63;;;2.16;54.67
24892;BME280;12954;50.688;10.908;2023-02-15T01:17:21;96810.41;;;2.26;54.11
24892;BME280;12954;50.688;10.908;2023-02-15T01:19:49;96803.25;;;2.26;54.00
24892;BME280;12954;50.688;10.908;2023-02-15T01:22:18;96773.41;;;1.96;54.21
24892;BME280;12954;50.688;10.908;2023-02-15T01:24:50;96812.84;;;2.20;54.01
24892;BME280;12954;50.688;10.908;2023-02-15T01:27:18;96536.34;;;0.49;54.06
24892;BME280;12954;50.688;10.908;2023-02-15T01:29:46;96814.88;;;2.12;54.10
24892;BME280;12954;50.688;10.908;2023-02-15T01:32:15;96810.94;;;2.08;54.26
24892;BME280;12954;50.688;10.908;2023-02-15T01:34:43;96809.50;;;2.05;54.18
24892;BME280;12954;50.688;10.908;2023-02-15T01:37:12;96809.88;;;2.02;54.28
24892;BME280;12954;50.688;10.908;2023-02-15T01:39:40;96810.28;;;1.99;54.28
24892;BME280;12954;50.688;10.908;2023-02-15T01:42:11;96803.34;;;1.98;54.19
24892;BME280;12954;50.688;10.908;2023-02-15T01:44:48;96805.72;;;1.93;54.32
24892;BME280;12954;50.688;10.908;2023-02-15T01:47:20;96801.19;;;1.87;54.48
24892;BME280;12954;50.688;10.908;2023-02-15T01:50:00;96797.06;;;1.85;54.58
24892;BME280;12954;50.688;10.908;2023-02-15T01:52:30;96660.22;;;0.91;54.43
24892;BME280;12954;50.688;10.908;2023-02-15T01:54:59;96798.22;;;1.76;54.58
24892;BME280;12954;50.688;10.908;2023-02-15T01:57:30;96794.94;;;1.74;54.75
24892;BME280;12954;50.688;10.908;2023-02-15T02:00:00;96696.47;;;1.05;54.70
24892;BME280;12954;50.688;10.908;2023-02-15T02:02:30;96796.69;;;1.60;54.79
24892;BME280;12954;50.688;10.908;2023-02-15T02:05:00;96783.69;;;1.44;54.98
24892;BME280;12954;50.688;10.908;2023-02-15T02:07:35;96786.59;;;1.49;55.20
24892;BME280;12954;50.688;10.908;2023-02-15T02:10:07;96789.81;;;1.44;55.27
24892;BME280;12954;50.688;10.908;2023-02-15T02:12:38;96780.97;;;1.37;55.25
24892;BME280;12954;50.688;10.908;2023-02-15T02:15:08;96792.03;;;1.41;55.14
24892;BME280;12954;50.688;10.908;2023-02-15T02:17:44;96784.44;;;1.38;55.21
24892;BME280;12954;50.688;10.908;2023-02-15T02:20:30;96780.78;;;1.39;54.95
24892;BME280;12954;50.688;10.908;2023-02-15T02:23:17;96776.69;;;1.36;54.90
24892;BME280;12954;50.688;10.908;2023-02-15T02:35:20;96768.84;;;1.28;55.24
24892;BME280;12954;50.688;10.908;2023-02-15T02:37:57;96782.81;;;1.37;55.18
24892;BME280;12954;50.688;10.908;2023-02-15T02:40:36;96784.44;;;1.38;54.99
24892;BME280;12954;50.688;10.908;2023-02-15T02:43:11;96780.78;;;1.39;55.04
24892;BME280;12954;50.688;10.908;2023-02-15T02:45:45;96751.63;;;1.24;55.00
24892;BME280;12954;50.688;10.908;2023-02-15T02:48:20;96781.41;;;1.41;55.08
24892;BME280;12954;50.688;10.908;2023-02-15T02:50:52;96780.97;;;1.37;54.99
24892;BME280;12954;50.688;10.908;2023-02-15T02:53:20;96777.69;;;1.35;54.97
24892;BME280;12954;50.688;10.908;2023-02-15T02:55:52;96779.91;;;1.32;55.09
24892;BME280;12954;50.688;10.908;2023-02-15T02:58:24;96774.34;;;1.27;55.03
24892;BME280;12954;50.688;10.908;2023-02-15T03:00:56;96758.94;;;1.16;54.93
24892;BME280;12954;50.688;10.908;2023-02-15T03:03:28;96776.38;;;1.25;54.78
24892;BME280;12954;50.688;10.908;2023-02-15T03:06:01;96769.03;;;1.27;54.66
24892;BME280;12954;50.688;10.908;2023-02-15T03:08:34;96769.66;;;1.29;54.75
24892;BME280;12954;50.688;10.908;2023-02-15T03:11:04;96761.69;;;1.29;54.76
24892;BME280;12954;50.688;10.908;2023-02-15T03:13:34;96759.78;;;1.23;54.64
24892;BME280;12954;50.688;10.908;2023-02-15T03:16:04;96760.66;;;1.30;54.75
24892;BME280;12954;50.688;10.908;2023-02-15T03:19:02;96748.09;;;1.17;54.73
24892;BME280;12954;50.688;10.908;2023-02-15T03:21:36;96720.75;;;0.95;54.73
24892;BME280;12954;50.688;10.908;2023-02-15T03:24:10;96762.84;;;1.20;54.88
24892;BME280;12954;50.688;10.908;2023-02-15T03:26:43;96752.72;;;1.08;54.59
24892;BME280;12954;50.688;10.908;2023-02-15T03:29:15;96716.00;;;0.91;54.50
24892;BME280;12954;50.688;10.908;2023-02-15T03:31:47;96678.41;;;0.66;54.62
24892;BME280;12954;50.688;10.908;2023-02-15T03:34:18;96759.31;;;1.13;54.76
24892;BME280;12954;50.688;10.908;2023-02-15T03:36:52;96757.41;;;1.06;54.66
24892;BME280;12954;50.688;10.908;2023-02-15T03:39:28;96753.88;;;0.99;54.90
24892;BME280;12954;50.688;10.908;2023-02-15T03:42:03;96748.00;;;0.83;55.02
24892;BME280;12954;50.688;10.908;2023-02-15T03:44:41;96755.22;;;0.89;55.12
24892;BME280;12954;50.688;10.908;2023-02-15T03:47:13;96750.06;;;0.87;55.01
24892;BME280;12954;50.688;10.908;2023-02-15T03:49:48;96752.13;;;0.85;55.13
24892;BME280;12954;50.688;10.908;2023-02-15T03:52:21;96743.06;;;0.80;55.26
24892;BME280;12954;50.688;10.908;2023-02-15T03:54:51;96734.03;;;0.74;55.41
24892;BME280;12954;50.688;10.908;2023-02-15T03:57:21;96741.00;;;0.75;55.28
24892;BME280;12954;50.688;10.908;2023-02-15T04:00:12;96711.78;;;0.54;55.26
24892;BME280;12954;50.688;10.908;2023-02-15T04:03:08;96734.88;;;0.75;55.25
24892;BME280;12954;50.688;10.908;2023-02-15T04:05:38;96726.75;;;0.62;55.24
24892;BME280;12954;50.688;10.908;2023-02-15T04:08:08;96738.44;;;0.67;55.21
24892;BME280;12954;50.688;10.908;2023-02-15T04:10:37;96736.81;;;0.66;55.16
24892;BME280;12954;50.688;10.908;2023-02-15T04:13:21;96708.59;;;0.44;55.37
24892;BME280;12954;50.688;10.908;2023-02-15T04:15:50;96722.78;;;0.51;55.43
24892;BME280;12954;50.688;10.908;2023-02-15T04:18:35;96671.94;;;0.12;55.68
24892;BME280;12954;50.688;10.908;2023-02-15T04:21:21;96728.63;;;0.46;55.88
24892;BME280;12954;50.688;10.908;2023-02-15T04:24:09;96728.84;;;0.45;55.52
24892;BME280;12954;50.688;10.908;2023-02-15T04:26:55;96728.00;;;0.44;55.43
24892;BME280;12954;50.688;10.908;2023-02-15T04:29:25;96728.84;;;0.45;55.40
24892;BME280;12954;50.688;10.908;2023-02-15T04:31:55;96702.91;;;0.26;55.55
24892;BME280;12954;50.688;10.908;2023-02-15T04:34:24;96696.22;;;0.30;55.64
24892;BME280;12954;50.688;10.908;2023-02-15T04:36:53;96693.06;;;0.20;55.54
24892;BME280;12954;50.688;10.908;2023-02-15T04:39:23;96710.75;;;0.34;55.75
24892;BME280;12954;50.688;10.908;2023-02-15T04:41:51;96627.94;;;-0.19;55.55
24892;BME280;12954;50.688;10.908;2023-02-15T04:44:20;96723.38;;;0.32;55.77
24892;BME280;12954;50.688;10.908;2023-02-15T04:46:48;96670.41;;;0.03;55.74
24892;BME280;12954;50.688;10.908;2023-02-15T04:49:17;96710.47;;;0.29;55.68
24892;BME280;12954;50.688;10.908;2023-02-15T04:51:45;96701.91;;;0.27;56.15
24892;BME280;12954;50.688;10.908;2023-02-15T04:54:13;96702.91;;;0.26;55.74
24892;BME280;12954;50.688;10.908;2023-02-15T04:56:43;96598.28;;;-0.43;55.72
24892;BME280;12954;50.688;10.908;2023-02-15T04:59:12;96687.84;;;0.12;56.17
24892;BME280;12954;50.688;10.908;2023-02-15T05:01:40;96699.53;;;0.17;55.96
24892;BME280;12954;50.688;10.908;2023-02-15T05:04:10;96684.44;;;0.18;56.19
24892;BME280;12954;50.688;10.908;2023-02-15T05:06:38;96705.69;;;0.18;56.00
24892;BME280;12954;50.688;10.908;2023-02-15T05:09:07;96686.94;;;0.19;56.18
24892;BME280;12954;50.688;10.908;2023-02-15T05:11:36;96681.78;;;0.18;55.95
24892;BME280;12954;50.688;10.908;2023-02-15T05:14:05;96667.13;;;0.01;56.12
24892;BME280;12954;50.688;10.908;2023-02-15T05:16:34;96693.16;;;0.12;56.01
24892;BME280;12954;50.688;10.908;2023-02-15T05:19:02;96682.91;;;0.09;56.31
24892;BME280;12954;50.688;10.908;2023-02-15T05:21:31;96679.25;;;0.10;56.01
24892;BME280;12954;50.688;10.908;2023-02-15T05:24:00;96682.75;;;0.10;56.13
24892;BME280;12954;50.688;10.908;2023-02-15T05:26:49;96677.22;;;0.12;56.19
24892;BME280;12954;50.688;10.908;2023-02-15T05:29:41;96658.53;;;-0.01;56.05
24892;BME280;12954;50.688;10.908;2023-02-15T05:32:12;96670.47;;;0.09;56.10
24892;BME280;12954;50.688;10.908;2023-02-15T05:34:41;96683.56;;;0.11;56.14
24892;BME280;12954;50.688;10.908;2023-02-15T05:37:09;96682.53;;;0.12;56.08
24892;BME280;12954;50.688;10.908;2023-02-15T05:39:37;96609.97;;;-0.38;56.12
24892;BME280;12954;50.688;10.908;2023-02-15T05:42:06;96681.53;;;0.13;56.10
24892;BME280;12954;50.688;10.908;2023-02-15T05:44:34;96678.69;;;0.14;56.05
24892;BME280;12954;50.688;10.908;2023-02-15T05:47:04;96679.13;;;0.18;55.73
24892;BME280;12954;50.688;10.908;2023-02-15T05:49:34;96675.13;;;0.22;56.00
24892;BME280;12954;50.688;10.908;2023-02-15T05:52:03;96672.09;;;0.25;55.92
24892;BME280;12954;50.688;10.908;2023-02-15T05:54:31;96676.72;;;0.23;56.04
24892;BME280;12954;50.688;10.908;2023-02-15T05:57:00;96654.19;;;0.12;55.72
24892;BME280;12954;50.688;10.908;2023-02-15T05:59:28;96663.16;;;0.11;55.88
24892;BME280;12954;50.688;10.908;2023-02-15T06:01:56;96670.69;;;0.29;55.97
24892;BME280;12954;50.688;10.908;2023-02-15T06:04:26;96625.31;;;0.03;55.97
24892;BME280;12954;50.688;10.908;2023-02-15T06:06:55;96680.44;;;0.43;55.84
24892;BME280;12954;50.688;10.908;2023-02-15T06:09:23;96660.34;;;0.34;55.63
24892;BME280;12954;50.688;10.908;2023-02-15T06:11:52;96683.88;;;0.43;55.91
24892;BME280;12954;50.688;10.908;2023-02-15T06:14:20;96657.03;;;0.32;55.69
24892;BME280;12954;50.688;10.908;2023-02-15T06:16:49;96672.53;;;0.28;55.86
24892;BME280;12954;50.688;10.908;2023-02-15T06:19:18;96686.22;;;0.32;55.76
24892;BME280;12954;50.688;10.908;2023-02-15T06:21:49;96678.59;;;0.22;55.69
24892;BME280;12954;50.688;10.908;2023-02-15T06:24:18;96643.88;;;0.03;55.99
24892;BME280;12954;50.688;10.908;2023-02-15T06:26:46;96689.78;;;0.39;55.92
24892;BME280;12954;50.688;10.908;2023-02-15T06:29:14;96684.09;;;0.42;55.67
24892;BME280;12954;50.688;10.908;2023-02-15T06:31:43;96683.72;;;0.45;55.70
24892;BME280;12954;50.688;10.908;2023-02-15T06:34:12;96689.66;;;0.47;55.67
24892;BME280;12954;50.688;10.908;2023-02-15T06:36:40;96688.03;;;0.46;55.71
24892;BME280;12954;50.688;10.908;2023-02-15T06:39:10;96682.06;;;0.44;55.78
24892;BME280;12954;50.688;10.908;2023-02-15T06:41:39;96678.53;;;0.37;55.64
24892;BME280;12954;50.688;10.908;2023-02-15T06:44:07;96681.44;;;0.42;55.88
24892;BME280;12954;50.688;10.908;2023-02-15T06:46:35;96679.03;;;0.47;55.75
24892;BME280;12954;50.688;10.908;2023-02-15T06:49:04;96684.63;;;0.52;55.78
24892;BME280;12954;50.688;10.908;2023-02-15T06:51:32;96680.38;;;0.58;55.61
24892;BME280;12954;50.688;10.908;2023-02-15T06:54:01;96680.41;;;0.64;55.62
24892;BME280;12954;50.688;10.908;2023-02-15T06:56:31;96678.44;;;0.73;55.42
24892;BME280;12954;50.688;10.908;2023-02-15T06:58:59;96682.19;;;0.78;55.46
24892;BME280;12954;50.688;10.908;2023-02-15T07:01:28;96678.94;;;0.83;55.46
24892;BME280;12954;50.688;10.908;2023-02-15T07:03:56;96677.75;;;0.85;55.60
24892;BME280;12954;50.688;10.908;2023-02-15T07:06:25;96679.78;;;0.83;55.79
24892;BME280;12954;50.688;10.908;2023-02-15T07:08:53;96668.53;;;0.81;55.70
24892;BME280;12954;50.688;10.908;2023-02-15T07:11:22;96666.72;;;0.88;55.71
24892;BME280;12954;50.688;10.908;2023-02-15T07:14:09;96650.94;;;0.80;55.77
24892;BME280;12954;50.688;10.908;2023-02-15T07:16:37;96655.53;;;0.93;55.73
24892;BME280;12954;50.688;10.908;2023-02-15T07:19:06;96650.03;;;0.94;55.70
24892;BME280;12954;50.688;10.908;2023-02-15T07:21:35;96651.69;;;0.95;55.71
24892;BME280;12954;50.688;10.908;2023-02-15T07:24:04;96604.22;;;0.65;55.72
24892;BME280;12954;50.688;10.908;2023-02-15T07:26:32;96633.19;;;0.87;55.76
24892;BME280;12954;50.688;10.908;2023-02-15T07:29:01;96625.06;;;0.89;55.65
24892;BME280;12954;50.688;10.908;2023-02-15T07:31:30;96656.25;;;1.08;55.52
24892;BME280;12954;50.688;10.908;2023-02-15T07:33:59;96654.22;;;1.10;55.50
24892;BME280;12954;50.688;10.908;2023-02-15T07:36:27;96650.16;;;1.14;55.59
24892;BME280;12954;50.688;10.908;2023-02-15T07:38:56;96651.81;;;1.15;55.66
24892;BME280;12954;50.688;10.908;2023-02-15T07:41:24;96631.31;;;1.09;55.70
24892;BME280;12954;50.688;10.908;2023-02-15T07:43:53;96653.69;;;1.21;55.85
24892;BME280;12954;50.688;10.908;2023-02-15T07:46:21;96654.31;;;1.23;55.87
24892;BME280;12954;50.688;10.908;2023-02-15T07:48:51;96648.59;;;1.26;55.90
24892;BME280;12954;50.688;10.908;2023-02-15T07:51:19;96650.69;;;1.31;55.86
24892;BME280;12954;50.688;10.908;2023-02-15T07:53:48;96648.25;;;1.36;55.89
24892;BME280;12954;50.688;10.908;2023-02-15T07:56:18;96636.22;;;1.40;56.08
24892;BME280;12954;50.688;10.908;2023-02-15T07:58:46;96644.41;;;1.45;56.11
24892;BME280;12954;50.688;10.908;2023-02-15T08:01:24;96632.38;;;1.49;56.08
24892;BME280;12954;50.688;10.908;2023-02-15T08:03:55;96633.22;;;1.56;56.04
24892;BME280;12954;50.688;10.908;2023-02-15T08:06:26;96637.75;;;1.62;56.18
24892;BME280;12954;50.688;10.908;2023-02-15T08:08:55;96629.38;;;1.65;56.04
24892;BME280;12954;50.688;10.908;2023-02-15T08:11:25;96622.63;;;1.62;55.88
24892;BME280;12954;50.688;10.908;2023-02-15T08:13:57;96634.56;;;1.80;55.81
24892;BME280;12954;50.688;10.908;2023-02-15T08:16:28;96637.88;;;1.88;55.67
24892;BME280;12954;50.688;10.908;2023-02-15T08:19:00;96629.09;;;1.94;55.67
24892;BME280;12954;50.688;10.908;2023-02-15T08:21:29;96627.91;;;2.03;55.48
24892;BME280;12954;50.688;10.908;2023-02-15T08:23:58;96635.72;;;2.11;55.56
24892;BME280;12954;50.688;10.908;2023-02-15T08:26:28;96633.09;;;2.25;55.29
24892;BME280;12954;50.688;10.908;2023-02-15T08:28:57;96576.53;;;2.09;53.57
24892;BME280;12954;50.688;10.908;2023-02-15T08:31:26;96586.84;;;2.78;49.62
24892;BME280;12954;50.688;10.908;2023-02-15T08:33:56;96584.13;;;2.91;49.68
24892;BME280;12954;50.688;10.908;2023-02-15T08:36:27;96623.78;;;3.52;48.80
24892;BME280;12954;50.688;10.908;2023-02-15T08:38:59;96596.09;;;3.53;48.43
24892;BME280;12954;50.688;10.908;2023-02-15T08:41:29;96631.28;;;3.81;48.90
24892;BME280;12954;50.688;10.908;2023-02-15T08:43:59;96625.91;;;3.87;49.15
24892;BME280;12954;50.688;10.908;2023-02-15T08:46:29;96623.88;;;3.89;49.83
24892;BME280;12954;50.688;10.908;2023-02-15T08:48:59;96555.47;;;3.51;48.94
24892;BME280;12954;50.688;10.908;2023-02-15T08:51:31;96629.13;;;4.09;48.67
24892;BME280;12954;50.688;10.908;2023-02-15T08:54:02;96594.28;;;3.91;48.89
24892;BME280;12954;50.688;10.908;2023-02-15T08:56:33;96618.00;;;4.12;49.56
24892;BME280;12954;50.688;10.908;2023-02-15T08:59:03;96589.81;;;3.85;49.83
24892;BME280;12954;50.688;10.908;2023-02-15T09:01:34;96622.72;;;4.10;50.02
24892;BME280;12954;50.688;10.908;2023-02-15T09:04:04;96623.69;;;4.22;49.50
24892;BME280;12954;50.688;10.908;2023-02-15T09:06:37;96618.97;;;4.24;49.49
24892;BME280;12954;50.688;10.908;2023-02-15T09:09:07;96620.88;;;4.49;48.79
24892;BME280;12954;50.688;10.908;2023-02-15T09:11:38;96620.00;;;4.55;48.45
24892;BME280;12954;50.688;10.908;2023-02-15T09:14:08;96589.50;;;4.37;48.68
24892;BME280;12954;50.688;10.908;2023-02-15T09:16:37;96610.25;;;4.67;48.14
24892;BME280;12954;50.688;10.908;2023-02-15T09:19:06;96608.81;;;4.71;48.52
24892;BME280;12954;50.688;10.908;2023-02-15T09:21:37;96622.69;;;4.86;48.21
24892;BME280;12954;50.688;10.908;2023-02-15T09:24:08;96587.63;;;4.69;48.08
24892;BME280;12954;50.688;10.908;2023-02-15T09:26:38;96627.25;;;5.04;47.70
24892;BME280;12954;50.688;10.908;2023-02-15T09:29:08;96626.78;;;5.31;46.33
24892;BME280;12954;50.688;10.908;2023-02-15T09:31:38;96623.75;;;5.46;46.26
24892;BME280;12954;50.688;10.908;2023-02-15T09:34:08;96627.56;;;5.56;46.01
24892;BME280;12954;50.688;10.908;2023-02-15T09:36:39;96624.00;;;5.63;45.98
24892;BME280;12954;50.688;10.908;2023-02-15T09:39:09;96623.69;;;5.71;45.90
24892;BME280;12954;50.688;10.908;2023-02-15T09:45:06;96626.00;;;5.85;46.24
24892;BME280;12954;50.688;10.908;2023-02-15T09:48:05;96633.94;;;5.92;45.84
24892;BME280;12954;50.688;10.908;2023-02-15T09:50:40;96625.47;;;5.95;45.93
24892;BME280;12954;50.688;10.908;2023-02-15T09:53:27;96631.09;;;6.05;45.87
24892;BME280;12954;50.688;10.908;2023-02-15T09:56:04;96625.72;;;6.05;45.62
24892;BME280;12954;50.688;10.908;2023-02-15T09:58:42;96624.50;;;6.37;44.18
24892;BME280;12954;50.688;10.908;2023-02-15T10:01:20;96617.88;;;6.40;43.48
24892;BME280;12954;50.688;10.908;2023-02-15T10:04:07;96631.31;;;6.51;43.77
24892;BME280;12954;50.688;10.908;2023-02-15T10:06:42;96632.50;;;6.55;43.89
24892;BME280;12954;50.688;10.908;2023-02-15T10:09:33;96599.13;;;6.51;43.75
24892;BME280;12954;50.688;10.908;2023-02-15T10:12:19;96631.38;;;6.75;43.46
24892;BME280;12954;50.688;10.908;2023-02-15T10:15:13;96625.09;;;6.81;42.79
24892;BME280;12954;50.688;10.908;2023-02-15T10:18:01;96621.50;;;6.98;41.93
24892;BME280;12954;50.688;10.908;2023-02-15T10:20:39;96623.72;;;7.01;41.51
24892;BME280;12954;50.688;10.908;2023-02-15T10:23:32;96582.44;;;6.91;41.30
24892;BME280;12954;50.688;10.908;2023-02-15T10:26:12;96620.72;;;7.21;41.43
24892;BME280;12954;50.688;10.908;2023-02-15T10:28:48;96622.00;;;7.30;40.96
24892;BME280;12954;50.688;10.908;2023-02-15T10:31:27;96595.50;;;7.22;40.74
24892;BME280;12954;50.688;10.908;2023-02-15T10:34:10;96619.06;;;7.43;40.70
24892;BME280;12954;50.688;10.908;2023-02-15T10:36:52;96617.31;;;7.49;41.00
24892;BME280;12954;50.688;10.908;2023-02-15T10:39:34;96611.81;;;7.55;40.88
24892;BME280;12954;50.688;10.908;2023-02-15T10:42:12;96606.66;;;7.65;40.67
24892;BME280;12954;50.688;10.908;2023-02-15T10:44:56;96599.59;;;7.71;40.70
24892;BME280;12954;50.688;10.908;2023-02-15T10:47:41;96598.22;;;7.97;39.87
24892;BME280;12954;50.688;10.908;2023-02-15T10:50:26;96594.00;;;8.01;40.28
24892;BME280;12954;50.688;10.908;2023-02-15T10:53:15;96593.72;;;8.14;40.50
24892;BME280;12954;50.688;10.908;2023-02-15T10:55:51;96579.56;;;8.18;40.73
24892;BME280;12954;50.688;10.908;2023-02-15T10:58:35;96565.63;;;8.21;40.59
24892;BME280;12954;50.688;10.908;2023-02-15T11:01:13;96576.53;;;8.43;40.19
24892;BME280;12954;50.688;10.908;2023-02-15T11:04:08;96543.44;;;8.43;39.32
24892;BME280;12954;50.688;10.908;2023-02-15T11:06:40;96562.94;;;8.83;38.87
24892;BME280;12954;50.688;10.908;2023-02-15T11:09:16;96538.31;;;8.74;38.83
24892;BME280;12954;50.688;10.908;2023-02-15T11:11:50;96553.81;;;8.84;39.19
24892;BME280;12954;50.688;10.908;2023-02-15T11:14:24;96536.38;;;8.86;38.80
24892;BME280;12954;50.688;10.908;2023-02-15T11:17:04;96567.75;;;9.31;38.24
24892;BME280;12954;50.688;10.908;2023-02-15T11:19:38;96541.69;;;9.15;38.72
24892;BME280;12954;50.688;10.908;2023-02-15T11:22:10;96557.28;;;9.51;37.76
24892;BME280;12954;50.688;10.908;2023-02-15T11:24:42;96549.84;;;9.58;37.44
24892;BME280;12954;50.688;10.908;2023-02-15T11:27:18;96558.53;;;9.65;36.97
24892;BME280;12954;50.688;10.908;2023-02-15T11:29:55;96563.41;;;9.68;37.19
24892;BME280;12954;50.688;10.908;2023-02-15T11:32:28;96536.03;;;9.55;37.64
24892;BME280;12954;50.688;10.908;2023-02-15T11:35:02;96564.63;;;9.77;37.54
24892;BME280;12954;50.688;10.908;2023-02-15T11:37:36;96556.63;;;9.82;38.13
24892;BME280;12954;50.688;10.908;2023-02-15T11:40:17;96556.22;;;9.95;37.97
24892;BME280;12954;50.688;10.908;2023-02-15T11:42:47;96516.69;;;9.79;37.64
24892;BME280;12954;50.688;10.908;2023-02-15T11:45:25;96552.41;;;10.18;37.29
24892;BME280;12954;50.688;10.908;2023-02-15T11:47:54;96534.31;;;10.14;36.68
24892;BME280;12954;50.688;10.908;2023-02-15T11:50:24;96482.84;;;9.88;36.41
24892;BME280;12954;50.688;10.908;2023-02-15T11:52:58;96551.28;;;10.36;36.96
24892;BME280;12954;50.688;10.908;2023-02-15T11:55:28;96545.97;;;10.41;37.37
24892;BME280;12954;50.688;10.908;2023-02-15T11:58:00;96547.69;;;10.52;37.01
24892;BME280;12954;50.688;10.908;2023-02-15T12:00:35;96545.03;;;10.57;36.79
24892;BME280;12954;50.688;10.908;2023-02-15T12:03:12;96542.69;;;10.66;36.31
24892;BME280;12954;50.688;10.908;2023-02-15T12:05:45;96540.78;;;10.66;36.08
24892;BME280;12954;50.688;10.908;2023-02-15T12:08:17;96541.13;;;10.75;36.01
24892;BME280;12954;50.688;10.908;2023-02-15T12:10:57;96533.38;;;10.83;35.62
24892;BME280;12954;50.688;10.908;2023-02-15T12:13:27;96526.44;;;10.92;34.38
24892;BME280;12954;50.688;10.908;2023-02-15T12:16:04;96524.28;;;10.94;34.39
24892;BME280;12954;50.688;10.908;2023-02-15T12:18:38;96528.38;;;10.97;34.18
24892;BME280;12954;50.688;10.908;2023-02-15T12:21:10;96499.28;;;10.72;34.57
24892;BME280;12954;50.688;10.908;2023-02-15T12:23:43;96532.50;;;11.09;33.07
24892;BME280;12954;50.688;10.908;2023-02-15T12:26:23;96524.38;;;11.04;32.81
24892;BME280;12954;50.688;10.908;2023-02-15T12:28:52;96526.44;;;10.92;33.73
24892;BME280;12954;50.688;10.908;2023-02-15T12:31:31;96528.69;;;11.05;33.74
24892;BME280;12954;50.688;10.908;2023-02-15T12:34:07;96523.84;;;11.07;33.47
24892;BME280;12954;50.688;10.908;2023-02-15T12:36:42;96514.06;;;10.96;33.71
24892;BME280;12954;50.688;10.908;2023-02-15T12:39:21;96521.63;;;10.99;33.92
24892;BME280;12954;50.688;10.908;2023-02-15T12:42:01;96511.91;;;10.98;33.98
24892;BME280;12954;50.688;10.908;2023-02-15T12:44:32;96520.09;;;11.08;34.23
24892;BME280;12954;50.688;10.908;2023-02-15T12:47:04;96514.69;;;11.08;34.28
24892;BME280;12954;50.688;10.908;2023-02-15T12:49:35;96516.28;;;11.09;34.22
24892;BME280;12954;50.688;10.908;2023-02-15T12:52:05;96509.66;;;11.27;33.80
24892;BME280;12954;50.688;10.908;2023-02-15T12:54:37;96519.09;;;11.25;33.61
24892;BME280;12954;50.688;10.908;2023-02-15T12:57:20;96513.16;;;11.28;32.85
24892;BME280;12954;50.688;10.908;2023-02-15T12:59:50;96511.81;;;11.30;33.83
24892;BME280;12954;50.688;10.908;2023-02-15T13:02:27;96476.16;;;11.23;33.64
24892;BME280;12954;50.688;10.908;2023-02-15T13:05:05;96501.69;;;11.47;33.69
24892;BME280;12954;50.688;10.908;2023-02-15T13:07:36;96494.38;;;11.48;33.62
24892;BME280;12954;50.688;10.908;2023-02-15T13:10:20;96504.13;;;11.49;33.43
24892;BME280;12954;50.688;10.908;2023-02-15T13:12:49;96499.97;;;11.31;33.08
24892;BME280;12954;50.688;10.908;2023-02-15T13:15:28;96504.56;;;11.36;33.97
24892;BME280;12954;50.688;10.908;2023-02-15T13:18:01;96503.81;;;11.45;33.75
24892;BME280;12954;50.688;10.908;2023-02-15T13:20:32;96506.50;;;11.45;33.65
24892;BME280;12954;50.688;10.908;2023-02-15T13:23:06;96492.72;;;11.42;33.38
24892;BME280;12954;50.688;10.908;2023-02-15T13:25:43;96499.75;;;11.43;33.23
24892;BME280;12954;50.688;10.908;2023-02-15T13:28:19;96479.63;;;11.24;33.40
24892;BME280;12954;50.688;10.908;2023-02-15T13:30:51;96464.72;;;11.11;33.15
24892;BME280;12954;50.688;10.908;2023-02-15T13:33:25;96492.06;;;11.25;33.20
24892;BME280;12954;50.688;10.908;2023-02-15T13:36:01;96492.06;;;11.20;33.18
24892;BME280;12954;50.688;10.908;2023-02-15T13:38:46;96472.44;;;10.92;32.97
24892;BME280;12954;50.688;10.908;2023-02-15T13:41:20;96498.47;;;11.08;32.92